Atlanta, Georgia
Traffic Map
Current Weather Conditions
Atlanta, Georgia
Few Clouds
Few Clouds
55°
Feels Like: 55°
Wind Chill: 55° Ceiling: Unl
Heat Index: 55° Visibility: 10mi
Dew Point: 41° Wind: 12mph
Humidity: 59% Direction: 340° (NNW)
Pressure: 30.09in Gusts: 0mph
Raw Report DataKATL 221452Z 34010KT 10SM FEW250 13/05 A3009 RMK AO2 SLP188 T01280050 51024
Traffic Incident Summary
Active as of:
Severity:
Category:
InformationThere was an issue retrieving the traffic information for this location. Please try a different location or try again shortly.
Advertisements